createdAt,value
2023-04-16T00:02:16.718Z,2.30
2023-04-16T00:04:43.955Z,2.33
2023-04-16T00:07:11.146Z,2.41
2023-04-16T00:09:38.316Z,2.08
2023-04-16T00:12:06.386Z,2.35
2023-04-16T00:14:33.636Z,2.32
2023-04-16T00:17:01.138Z,2.20
2023-04-16T00:19:28.255Z,2.24
2023-04-16T00:21:55.664Z,2.11
2023-04-16T00:24:23.033Z,2.26
2023-04-16T00:26:50.030Z,2.24
2023-04-16T00:29:17.045Z,2.17
2023-04-16T00:31:44.167Z,2.08
2023-04-16T00:34:11.347Z,2.09
2023-04-16T00:36:38.793Z,2.08
2023-04-16T00:39:05.899Z,2.00
2023-04-16T00:41:33.004Z,2.06
2023-04-16T00:44:00.177Z,1.93
2023-04-16T00:46:27.935Z,1.97
2023-04-16T00:48:56.461Z,1.89
2023-04-16T00:51:23.990Z,1.88
2023-04-16T00:53:51.248Z,1.75
2023-04-16T00:56:18.628Z,1.68
2023-04-16T00:58:45.775Z,1.66
2023-04-16T01:01:14.700Z,1.72
2023-04-16T01:03:47.431Z,1.71
2023-04-16T01:06:16.026Z,1.58
2023-04-16T01:08:43.403Z,1.62
2023-04-16T01:11:11.374Z,1.49
2023-04-16T01:13:41.552Z,1.51
2023-04-16T01:16:10.045Z,1.49
2023-04-16T01:18:37.809Z,1.44
2023-04-16T01:21:05.583Z,1.46
2023-04-16T01:23:33.550Z,1.43
2023-04-16T01:26:01.143Z,1.31
2023-04-16T01:28:28.231Z,1.38
2023-04-16T01:30:55.579Z,1.13
2023-04-16T01:33:36.057Z,1.04
2023-04-16T01:36:03.343Z,1.40
2023-04-16T01:38:30.533Z,1.29
2023-04-16T01:40:59.590Z,1.36
2023-04-16T01:43:26.880Z,1.20
2023-04-16T01:46:19.622Z,1.19
2023-04-16T01:48:47.611Z,1.13
2023-04-16T01:51:14.815Z,1.08
2023-04-16T01:53:41.919Z,1.28
2023-04-16T01:56:09.109Z,1.27
2023-04-16T01:58:36.266Z,1.10
2023-04-16T02:01:04.626Z,1.23
2023-04-16T02:03:32.721Z,1.18
2023-04-16T02:06:01.330Z,1.01
2023-04-16T02:08:29.340Z,1.08
2023-04-16T02:10:57.722Z,1.14
2023-04-16T02:13:26.329Z,0.98
2023-04-16T02:15:53.857Z,1.04
2023-04-16T02:18:50.485Z,0.86
2023-04-16T02:21:20.431Z,0.89
2023-04-16T02:23:51.815Z,0.88
2023-04-16T02:26:23.635Z,0.88
2023-04-16T02:28:51.246Z,0.97
2023-04-16T02:31:22.554Z,1.04
2023-04-16T02:33:49.848Z,1.00
2023-04-16T02:36:17.069Z,0.76
2023-04-16T02:38:44.241Z,0.96
2023-04-16T02:41:11.554Z,0.77
2023-04-16T02:43:38.606Z,0.83
2023-04-16T02:46:06.168Z,0.90
2023-04-16T02:48:33.406Z,0.80
2023-04-16T02:51:00.911Z,0.71
2023-04-16T02:53:28.088Z,0.69
2023-04-16T02:55:56.052Z,0.91
2023-04-16T02:58:25.129Z,0.93
2023-04-16T03:00:53.877Z,0.94
2023-04-16T03:03:21.545Z,0.87
2023-04-16T03:05:48.800Z,0.62
2023-04-16T03:08:17.196Z,0.96
2023-04-16T03:10:44.676Z,0.77
2023-04-16T03:13:12.223Z,0.97
2023-04-16T03:15:39.293Z,0.94
2023-04-16T03:18:06.608Z,0.77
2023-04-16T03:20:34.004Z,0.99
2023-04-16T03:23:01.450Z,0.82
2023-04-16T03:25:28.506Z,1.02
2023-04-16T03:27:56.836Z,0.98
2023-04-16T03:30:24.435Z,1.03
2023-04-16T03:32:52.198Z,0.99
2023-04-16T03:35:19.672Z,1.09
2023-04-16T03:37:46.792Z,0.91
2023-04-16T03:40:14.192Z,1.12
2023-04-16T03:42:41.802Z,1.08
2023-04-16T03:45:09.649Z,1.15
2023-04-16T03:47:38.274Z,1.17
2023-04-16T03:50:05.805Z,1.23
2023-04-16T03:52:32.953Z,1.10
2023-04-16T03:54:59.997Z,1.17
2023-04-16T03:57:33.315Z,1.43
2023-04-16T04:00:06.986Z,1.58
2023-04-16T04:02:57.267Z,1.83
2023-04-16T04:05:24.780Z,2.15
2023-04-16T04:07:52.669Z,2.51
2023-04-16T04:10:19.891Z,2.73
2023-04-16T04:12:47.332Z,3.17
2023-04-16T04:15:14.536Z,3.47
2023-04-16T04:17:43.063Z,3.80
2023-04-16T04:20:11.036Z,3.83
2023-04-16T04:22:38.220Z,4.28
2023-04-16T04:25:05.749Z,4.71
2023-04-16T04:27:33.478Z,4.95
2023-04-16T04:30:00.598Z,5.54
2023-04-16T04:32:28.185Z,5.92
2023-04-16T04:34:55.273Z,6.12
2023-04-16T04:37:22.593Z,6.47
2023-04-16T04:39:49.618Z,6.45
2023-04-16T04:42:18.829Z,6.63
2023-04-16T04:44:46.262Z,6.67
2023-04-16T04:47:14.966Z,6.93
2023-04-16T04:49:42.154Z,7.04
2023-04-16T04:52:09.474Z,7.20
2023-04-16T04:54:37.026Z,7.35
2023-04-16T04:57:05.512Z,7.50
2023-04-16T04:59:33.008Z,6.98
2023-04-16T05:02:00.793Z,6.66
2023-04-16T05:04:27.822Z,6.32
2023-04-16T05:06:55.299Z,6.61
2023-04-16T05:09:22.586Z,6.61
2023-04-16T05:11:49.774Z,7.10
2023-04-16T05:14:17.182Z,6.96
2023-04-16T05:16:44.491Z,7.10
2023-04-16T05:19:12.023Z,6.91
2023-04-16T05:21:39.372Z,7.24
2023-04-16T05:24:06.845Z,7.36
2023-04-16T05:26:33.939Z,7.35
2023-04-16T05:29:01.216Z,7.31
2023-04-16T05:31:28.580Z,7.54
2023-04-16T05:33:55.752Z,7.51
2023-04-16T05:36:23.090Z,7.74
2023-04-16T05:38:50.284Z,7.75
2023-04-16T05:41:17.476Z,7.71
2023-04-16T05:43:49.033Z,7.83
2023-04-16T05:46:16.239Z,7.88
2023-04-16T05:48:43.784Z,7.87
2023-04-16T05:51:11.234Z,8.06
2023-04-16T05:53:38.530Z,8.42
2023-04-16T05:56:06.062Z,8.95
2023-04-16T05:58:34.085Z,9.49
2023-04-16T06:01:01.602Z,9.80
2023-04-16T06:03:28.971Z,10.17
2023-04-16T06:05:56.130Z,10.53
2023-04-16T06:08:25.052Z,10.38
2023-04-16T06:10:52.233Z,10.49
2023-04-16T06:13:22.161Z,10.73
2023-04-16T06:15:49.502Z,11.29
2023-04-16T06:18:16.502Z,11.81
2023-04-16T06:20:43.762Z,11.35
2023-04-16T06:23:11.075Z,11.52
2023-04-16T06:25:38.265Z,11.81
2023-04-16T06:28:05.791Z,12.31
2023-04-16T06:30:33.497Z,13.01
2023-04-16T06:33:01.124Z,13.42
2023-04-16T06:35:28.429Z,13.41
2023-04-16T06:37:55.741Z,13.22
2023-04-16T06:40:23.016Z,12.58
2023-04-16T06:42:50.591Z,12.65
2023-04-16T06:45:18.124Z,12.81
2023-04-16T06:47:45.257Z,13.09
2023-04-16T06:50:12.439Z,12.60
2023-04-16T06:52:39.597Z,12.06
2023-04-16T06:55:09.765Z,11.85
2023-04-16T06:57:37.754Z,12.07
2023-04-16T07:00:05.554Z,12.36
2023-04-16T07:02:32.981Z,12.74
2023-04-16T07:05:00.712Z,12.84
2023-04-16T07:07:27.798Z,13.25
2023-04-16T07:09:54.912Z,13.44
2023-04-16T07:12:22.952Z,13.90
2023-04-16T07:14:51.189Z,14.00
2023-04-16T07:17:18.328Z,14.31
2023-04-16T07:19:45.670Z,14.27
2023-04-16T07:22:12.817Z,14.39
2023-04-16T07:24:39.983Z,14.35
2023-04-16T07:27:07.123Z,14.54
2023-04-16T07:29:37.372Z,14.58
2023-04-16T07:32:05.597Z,14.72
2023-04-16T07:34:32.712Z,15.03
2023-04-16T07:36:59.883Z,14.86
2023-04-16T07:39:27.028Z,14.92
2023-04-16T07:41:54.118Z,15.44
2023-04-16T07:44:25.660Z,15.09
2023-04-16T07:46:55.761Z,14.81
2023-04-16T07:49:23.998Z,14.26
2023-04-16T07:51:51.056Z,13.81
2023-04-16T07:54:21.046Z,13.93
2023-04-16T07:56:51.037Z,13.90
2023-04-16T07:59:22.817Z,13.08
2023-04-16T08:01:52.634Z,13.08
2023-04-16T08:04:26.581Z,12.99
2023-04-16T08:06:54.657Z,13.12
2023-04-16T08:09:24.084Z,13.40
2023-04-16T08:14:53.537Z,13.49
2023-04-16T08:17:20.709Z,14.10
2023-04-16T08:19:48.002Z,14.56
2023-04-16T08:22:15.186Z,14.72
2023-04-16T08:24:42.426Z,15.32
2023-04-16T08:27:18.421Z,15.69
2023-04-16T08:29:52.593Z,16.00
2023-04-16T08:32:19.911Z,16.14
2023-04-16T08:34:47.090Z,15.72
2023-04-16T08:37:14.302Z,15.71
2023-04-16T08:39:41.592Z,16.01
2023-04-16T08:42:18.234Z,16.14
2023-04-16T08:44:49.475Z,16.15
2023-04-16T08:47:16.852Z,16.10
2023-04-16T08:49:46.224Z,15.89
2023-04-16T08:52:20.469Z,16.18
2023-04-16T08:55:02.711Z,16.57
2023-04-16T08:57:41.064Z,16.89
2023-04-16T09:00:09.759Z,17.11
2023-04-16T09:02:37.507Z,17.46
2023-04-16T09:05:07.728Z,17.82
2023-04-16T09:07:35.645Z,17.77
2023-04-16T09:10:03.783Z,18.04
2023-04-16T09:12:33.432Z,17.92
2023-04-16T09:15:03.549Z,16.47
2023-04-16T09:17:34.996Z,16.12
2023-04-16T09:20:04.917Z,16.41
2023-04-16T09:22:32.835Z,16.65
2023-04-16T09:24:59.951Z,17.12
2023-04-16T09:27:42.082Z,17.09
2023-04-16T09:30:41.274Z,16.36
2023-04-16T09:33:22.933Z,16.44
2023-04-16T09:35:52.928Z,16.52
2023-04-16T09:38:20.774Z,16.75
2023-04-16T09:40:48.012Z,16.36
2023-04-16T09:43:17.991Z,15.66
2023-04-16T09:45:50.272Z,15.56
2023-04-16T09:48:29.358Z,16.04
2023-04-16T09:50:57.241Z,16.39
2023-04-16T09:53:29.215Z,16.61
2023-04-16T09:56:02.393Z,16.32
2023-04-16T09:58:29.863Z,16.45
2023-04-16T10:01:11.505Z,16.29
2023-04-16T10:03:40.696Z,16.16
2023-04-16T10:06:15.309Z,15.72
2023-04-16T10:08:53.498Z,15.36
2023-04-16T10:11:49.684Z,15.09
2023-04-16T10:14:23.114Z,15.58
2023-04-16T10:17:21.566Z,15.33
2023-04-16T10:20:07.003Z,15.66
2023-04-16T10:22:49.198Z,16.62
2023-04-16T10:25:37.810Z,16.43
2023-04-16T10:28:08.023Z,15.46
2023-04-16T10:30:55.519Z,15.63
2023-04-16T10:33:34.440Z,16.17
2023-04-16T10:36:31.686Z,17.25
2023-04-16T10:39:17.150Z,17.15
2023-04-16T10:41:47.947Z,17.34
2023-04-16T10:44:30.241Z,17.53
2023-04-16T10:47:01.025Z,17.60
2023-04-16T10:49:28.368Z,17.23
2023-04-16T10:52:17.559Z,17.47
2023-04-16T10:54:52.690Z,18.14
2023-04-16T10:57:25.395Z,18.46
2023-04-16T10:59:53.477Z,18.82
2023-04-16T11:02:29.297Z,17.36
2023-04-16T11:04:58.153Z,17.07
2023-04-16T11:07:35.362Z,16.89
2023-04-16T11:10:13.492Z,16.36
2023-04-16T11:12:46.050Z,17.86
2023-04-16T11:15:20.073Z,18.66
2023-04-16T11:17:52.290Z,19.71
2023-04-16T11:20:21.038Z,20.05
2023-04-16T11:22:50.827Z,20.51
2023-04-16T11:25:26.523Z,20.99
2023-04-16T11:27:54.995Z,22.31
2023-04-16T11:30:49.031Z,22.41
2023-04-16T11:33:16.714Z,22.30
2023-04-16T11:35:46.050Z,23.05
2023-04-16T11:38:13.293Z,23.52
2023-04-16T11:40:43.085Z,24.02
2023-04-16T11:43:14.301Z,23.39
2023-04-16T11:45:56.623Z,22.89
2023-04-16T11:48:23.829Z,22.08
2023-04-16T11:50:58.152Z,21.47
2023-04-16T11:53:25.382Z,21.70
2023-04-16T11:55:52.478Z,21.76
2023-04-16T11:58:20.397Z,21.43
2023-04-16T12:00:53.484Z,20.97
2023-04-16T12:03:38.442Z,21.54
2023-04-16T12:06:09.926Z,21.86
2023-04-16T12:08:37.324Z,22.28
2023-04-16T12:11:04.818Z,22.45
2023-04-16T12:13:39.882Z,23.52
2023-04-16T12:16:18.607Z,24.30
2023-04-16T12:19:04.142Z,24.77
2023-04-16T12:21:43.066Z,25.41
2023-04-16T12:24:13.712Z,25.37
2023-04-16T12:26:46.656Z,24.47
2023-04-16T12:29:22.391Z,23.65
2023-04-16T12:31:50.977Z,23.62
2023-04-16T12:34:20.054Z,23.67
2023-04-16T12:36:48.705Z,23.50
2023-04-16T12:39:16.349Z,24.41
2023-04-16T12:41:44.679Z,24.10
2023-04-16T12:44:16.708Z,23.54
2023-04-16T12:46:45.207Z,24.05
2023-04-16T12:49:12.751Z,24.36
2023-04-16T12:51:40.190Z,24.98
2023-04-16T12:54:07.716Z,24.89
2023-04-16T12:59:47.212Z,23.89
2023-04-16T13:02:14.367Z,23.95
2023-04-16T13:04:41.599Z,24.63
2023-04-16T13:07:08.818Z,24.63
2023-04-16T13:09:37.760Z,24.73
2023-04-16T13:12:06.780Z,24.51
2023-04-16T13:14:33.909Z,25.14
2023-04-16T13:17:01.465Z,24.70
2023-04-16T13:19:28.782Z,24.48
2023-04-16T13:21:56.048Z,24.39
2023-04-16T13:24:23.848Z,24.27
2023-04-16T13:26:53.865Z,23.68
2023-04-16T13:29:20.971Z,24.77
2023-04-16T13:31:48.533Z,25.33
2023-04-16T13:34:20.445Z,25.09
2023-04-16T13:36:47.927Z,24.82
2023-04-16T13:39:15.814Z,24.94
2023-04-16T13:41:43.468Z,24.30
2023-04-16T13:44:10.675Z,24.55
2023-04-16T13:46:37.721Z,23.10
2023-04-16T13:49:04.948Z,22.42
2023-04-16T13:51:32.227Z,22.09
2023-04-16T13:53:59.509Z,22.23
2023-04-16T13:56:26.860Z,22.09
2023-04-16T13:58:54.290Z,21.27
2023-04-16T14:01:21.909Z,21.05
2023-04-16T14:03:49.771Z,20.42
2023-04-16T14:06:18.238Z,20.46
2023-04-16T14:08:46.017Z,19.89
2023-04-16T14:11:13.164Z,19.24
2023-04-16T14:13:40.621Z,18.80
2023-04-16T14:16:07.894Z,18.36
2023-04-16T14:18:35.911Z,18.59
2023-04-16T14:21:03.136Z,19.35
2023-04-16T14:23:30.350Z,19.82
2023-04-16T14:25:57.627Z,20.34
2023-04-16T14:28:25.122Z,19.98
2023-04-16T14:30:52.524Z,19.88
2023-04-16T14:33:19.874Z,19.23
2023-04-16T14:35:47.048Z,18.44
2023-04-16T14:38:14.339Z,18.26
2023-04-16T14:40:41.664Z,18.11
2023-04-16T14:43:08.845Z,18.11
2023-04-16T14:45:39.235Z,18.12
2023-04-16T14:48:06.932Z,17.56
2023-04-16T14:50:38.233Z,17.33
2023-04-16T14:53:06.059Z,16.73
2023-04-16T14:55:33.283Z,15.87
2023-04-16T14:58:00.672Z,15.49
2023-04-16T15:00:28.238Z,15.08
2023-04-16T15:02:55.846Z,14.71
2023-04-16T15:05:29.272Z,14.10
2023-04-16T15:08:00.694Z,13.99
2023-04-16T15:10:28.660Z,13.80
2023-04-16T15:12:55.894Z,13.48
2023-04-16T15:15:22.934Z,13.47
2023-04-16T15:17:51.223Z,13.41
2023-04-16T15:20:18.775Z,13.05
2023-04-16T15:22:46.373Z,13.34
2023-04-16T15:25:14.615Z,13.17
2023-04-16T15:27:41.795Z,12.99
2023-04-16T15:30:09.456Z,13.27
2023-04-16T15:32:36.888Z,13.23
2023-04-16T15:35:05.092Z,13.31
2023-04-16T15:37:32.248Z,13.09
2023-04-16T15:39:59.482Z,13.08
2023-04-16T15:42:26.735Z,13.02
2023-04-16T15:44:53.905Z,12.98
2023-04-16T15:47:21.080Z,12.63
2023-04-16T15:49:48.255Z,12.91
2023-04-16T15:52:18.670Z,12.71
2023-04-16T15:54:45.967Z,12.83
2023-04-16T15:57:12.949Z,12.69
2023-04-16T15:59:40.066Z,12.68
2023-04-16T16:02:09.490Z,12.62
2023-04-16T16:04:36.753Z,12.50
2023-04-16T16:07:04.721Z,12.50
2023-04-16T16:09:31.951Z,12.25
2023-04-16T16:11:59.914Z,12.36
2023-04-16T16:14:27.092Z,12.30
2023-04-16T16:16:54.745Z,12.21
2023-04-16T16:19:24.309Z,12.20
2023-04-16T16:21:51.522Z,11.92
2023-04-16T16:24:18.685Z,11.93
2023-04-16T16:26:45.806Z,11.93
2023-04-16T16:29:13.304Z,11.72
2023-04-16T16:31:40.553Z,11.66
2023-04-16T16:34:07.901Z,11.74
2023-04-16T16:36:37.873Z,11.86
2023-04-16T16:39:05.112Z,11.77
2023-04-16T16:41:32.557Z,11.82
2023-04-16T16:43:59.932Z,11.75
2023-04-16T16:46:27.170Z,11.62
2023-04-16T16:48:54.600Z,11.62
2023-04-16T16:51:21.726Z,11.59
2023-04-16T16:53:48.923Z,11.70
2023-04-16T16:56:16.220Z,11.68
2023-04-16T16:58:43.601Z,11.64
2023-04-16T17:01:10.730Z,11.57
2023-04-16T17:03:37.815Z,11.26
2023-04-16T17:06:11.174Z,11.41
2023-04-16T17:08:38.531Z,11.21
2023-04-16T17:11:05.738Z,11.14
2023-04-16T17:13:32.920Z,11.20
2023-04-16T17:16:00.174Z,11.07
2023-04-16T17:18:28.137Z,11.18
2023-04-16T17:20:55.203Z,11.14
2023-04-16T17:23:25.153Z,10.91
2023-04-16T17:25:52.612Z,10.89
2023-04-16T17:28:21.013Z,11.01
2023-04-16T17:30:56.769Z,10.92
2023-04-16T17:33:50.878Z,10.38
2023-04-16T17:36:19.896Z,10.77
2023-04-16T17:38:46.924Z,10.61
2023-04-16T17:41:14.122Z,10.58
2023-04-16T17:43:41.311Z,10.51
2023-04-16T17:46:11.878Z,10.42
2023-04-16T17:48:38.972Z,10.37
2023-04-16T17:51:11.940Z,10.22
2023-04-16T17:53:39.336Z,10.33
2023-04-16T17:56:06.915Z,10.23
2023-04-16T17:58:35.403Z,10.34
2023-04-16T18:01:03.577Z,10.31
2023-04-16T18:03:32.156Z,10.33
2023-04-16T18:05:59.788Z,10.30
2023-04-16T18:08:27.786Z,10.27
2023-04-16T18:10:55.710Z,10.20
2023-04-16T18:13:24.313Z,10.30
2023-04-16T18:15:51.985Z,10.26
2023-04-16T18:18:20.732Z,10.00
2023-04-16T18:20:48.273Z,10.12
2023-04-16T18:23:15.364Z,10.03
2023-04-16T18:25:42.517Z,9.87
2023-04-16T18:28:09.631Z,9.86
2023-04-16T18:30:40.466Z,9.94
2023-04-16T18:35:57.505Z,9.09
2023-04-16T18:39:02.758Z,9.07
2023-04-16T18:41:27.462Z,9.57
2023-04-16T18:43:54.695Z,9.97
2023-04-16T18:46:22.107Z,9.95
2023-04-16T18:48:49.566Z,9.81
2023-04-16T18:51:16.973Z,9.88
2023-04-16T18:53:45.929Z,9.82
2023-04-16T18:56:13.168Z,9.75
2023-04-16T18:58:40.551Z,9.66
2023-04-16T19:01:11.449Z,9.66
2023-04-16T19:03:39.453Z,9.42
2023-04-16T19:06:07.154Z,9.61
2023-04-16T19:08:37.597Z,9.40
2023-04-16T19:11:04.552Z,9.57
2023-04-16T19:13:32.543Z,9.40
2023-04-16T19:16:01.207Z,9.46
2023-04-16T19:18:28.473Z,9.32
2023-04-16T19:21:00.680Z,9.50
2023-04-16T19:23:29.242Z,9.07
2023-04-16T19:25:57.079Z,9.39
2023-04-16T19:28:25.939Z,9.26
2023-04-16T19:30:54.045Z,9.36
2023-04-16T19:33:21.540Z,9.25
2023-04-16T19:35:49.089Z,9.27
2023-04-16T19:38:18.150Z,9.25
2023-04-16T19:41:12.267Z,9.20
2023-04-16T19:43:39.307Z,9.09
2023-04-16T19:46:06.697Z,9.10
2023-04-16T19:48:34.079Z,9.13
2023-04-16T19:51:03.707Z,8.83
2023-04-16T19:53:30.722Z,8.88
2023-04-16T19:55:57.901Z,9.05
2023-04-16T19:58:25.494Z,8.94
2023-04-16T20:00:56.599Z,8.82
2023-04-16T20:03:23.910Z,8.66
2023-04-16T20:05:51.216Z,8.81
2023-04-16T20:08:18.315Z,8.80
2023-04-16T20:10:45.605Z,8.76
2023-04-16T20:13:13.857Z,8.60
2023-04-16T20:15:41.213Z,8.70
2023-04-16T20:18:09.059Z,8.68
2023-04-16T20:20:37.964Z,8.60
2023-04-16T20:23:14.772Z,8.55
2023-04-16T20:25:49.140Z,8.54
2023-04-16T20:28:18.276Z,7.87
2023-04-16T20:30:45.395Z,8.32
2023-04-16T20:33:12.813Z,8.38
2023-04-16T20:35:40.123Z,8.38
2023-04-16T20:38:07.191Z,8.19
2023-04-16T20:40:38.841Z,8.07
2023-04-16T20:43:10.332Z,8.23
2023-04-16T20:45:41.199Z,8.02
2023-04-16T20:48:10.250Z,8.04
2023-04-16T20:50:38.019Z,8.10
2023-04-16T20:53:05.123Z,8.07
2023-04-16T20:55:32.284Z,8.04
2023-04-16T20:57:59.467Z,7.95
2023-04-16T21:00:27.257Z,7.96
2023-04-16T21:02:54.978Z,7.99
2023-04-16T21:05:24.041Z,7.92
2023-04-16T21:07:52.365Z,7.92
2023-04-16T21:10:20.887Z,7.90
2023-04-16T21:12:49.632Z,7.80
2023-04-16T21:15:16.872Z,7.68
2023-04-16T21:17:43.952Z,7.41
2023-04-16T21:20:13.654Z,7.69
2023-04-16T21:22:41.215Z,7.69
2023-04-16T21:25:08.953Z,7.43
2023-04-16T21:27:38.340Z,7.77
2023-04-16T21:30:05.990Z,7.71
2023-04-16T21:32:33.448Z,7.71
2023-04-16T21:35:01.070Z,7.67
2023-04-16T21:37:28.408Z,7.67
2023-04-16T21:39:55.740Z,7.68
2023-04-16T21:42:22.914Z,7.64
2023-04-16T21:44:50.310Z,7.61
2023-04-16T21:47:19.473Z,7.36
2023-04-16T21:49:46.701Z,7.60
2023-04-16T21:52:18.514Z,7.68
2023-04-16T21:54:46.185Z,7.62
2023-04-16T21:57:13.845Z,7.65
2023-04-16T21:59:41.246Z,7.63
2023-04-16T22:02:08.546Z,7.50
2023-04-16T22:04:39.528Z,7.64
2023-04-16T22:07:11.925Z,7.46
2023-04-16T22:09:40.556Z,7.61
2023-04-16T22:12:10.633Z,7.38
2023-04-16T22:14:44.047Z,7.45
2023-04-16T22:17:17.359Z,7.53
2023-04-16T22:19:44.851Z,7.48
2023-04-16T22:22:12.208Z,7.39
2023-04-16T22:24:39.403Z,7.46
2023-04-16T22:27:06.909Z,7.42
2023-04-16T22:29:34.223Z,7.40
2023-04-16T22:32:02.104Z,7.27
2023-04-16T22:34:29.402Z,7.20
2023-04-16T22:36:56.535Z,7.25
2023-04-16T22:39:23.677Z,7.16
2023-04-16T22:41:50.769Z,7.18
2023-04-16T22:44:17.892Z,7.23
2023-04-16T22:46:45.114Z,7.21
2023-04-16T22:49:12.374Z,7.24
2023-04-16T22:51:40.448Z,7.20
2023-04-16T22:54:08.081Z,7.16
2023-04-16T22:56:35.346Z,7.04
2023-04-16T22:59:02.450Z,7.13
2023-04-16T23:01:29.618Z,7.10
2023-04-16T23:03:56.904Z,7.00
2023-04-16T23:06:24.232Z,7.04
2023-04-16T23:08:51.440Z,7.02
2023-04-16T23:11:18.475Z,7.07
2023-04-16T23:13:45.849Z,7.00
2023-04-16T23:16:16.234Z,6.93
2023-04-16T23:18:43.442Z,7.09
2023-04-16T23:21:10.708Z,6.91
2023-04-16T23:23:37.749Z,7.05
2023-04-16T23:26:05.213Z,6.94
2023-04-16T23:28:32.400Z,6.94
2023-04-16T23:30:59.638Z,7.01
2023-04-16T23:33:27.382Z,6.87
2023-04-16T23:35:54.593Z,7.00
2023-04-16T23:38:22.029Z,6.90
2023-04-16T23:40:49.236Z,6.90
2023-04-16T23:43:16.992Z,6.96
2023-04-16T23:45:44.314Z,6.94
2023-04-16T23:48:11.781Z,6.89
2023-04-16T23:50:38.950Z,6.78
2023-04-16T23:53:06.525Z,6.78
2023-04-16T23:55:33.607Z,6.83
2023-04-16T23:58:00.732Z,6.79
